Time;durP1;ratioP1;P1;durP2;ratioP2;P2;SDS_P1;SDS_P2;PMS_P1;PMS_P2;Temp;Humidity;BMP_temperature;BMP_pressure;BME280_temperature;BME280_humidity;BME280_pressure;Samples;Min_cycle;Max_cycle;Signal;HPM_P1;HPM_P2
2023/09/01 00:02:06;;;;;;;5.07;3.10;;;17.50;89.20;;;;;;5053207;28;20920;-59
2023/09/01 00:04:33;;;;;;;4.70;2.77;;;17.60;89.70;;;;;;5053254;28;20540;-59
2023/09/01 00:07:01;;;;;;;6.53;3.10;;;17.60;89.90;;;;;;5053236;28;20446;-59
2023/09/01 00:09:28;;;;;;;5.50;3.70;;;17.60;90.00;;;;;;5053219;28;20442;-59
2023/09/01 00:11:54;;;;;;;4.90;2.93;;;17.60;90.00;;;;;;5052635;28;21029;-59
2023/09/01 00:14:21;;;;;;;4.33;3.40;;;17.60;90.10;;;;;;5053147;28;20872;-59
2023/09/01 00:16:49;;;;;;;2.80;2.60;;;17.60;90.20;;;;;;5053161;28;20469;-59
2023/09/01 00:19:15;;;;;;;7.50;5.00;;;17.60;90.20;;;;;;5053087;28;20450;-59
2023/09/01 00:21:42;;;;;;;5.33;3.10;;;17.50;90.20;;;;;;5053186;28;20473;-59
2023/09/01 00:24:09;;;;;;;8.00;2.90;;;17.50;90.20;;;;;;5053057;28;20441;-59
2023/09/01 00:26:36;;;;;;;5.80;3.30;;;17.50;90.30;;;;;;5052997;28;20446;-59
2023/09/01 00:29:03;;;;;;;8.20;3.50;;;17.50;90.50;;;;;;5053612;28;20449;-59
2023/09/01 00:31:30;;;;;;;8.23;3.30;;;17.40;90.60;;;;;;5052849;28;20535;-59
2023/09/01 00:33:58;;;;;;;5.20;3.50;;;17.40;90.90;;;;;;5052911;28;20480;-59
2023/09/01 00:36:25;;;;;;;5.07;3.00;;;17.40;91.00;;;;;;5054490;28;20494;-59
2023/09/01 00:38:51;;;;;;;4.90;2.80;;;17.40;90.90;;;;;;5057027;28;20450;-59
2023/09/01 00:41:18;;;;;;;7.43;3.43;;;17.40;91.10;;;;;;5056802;28;20471;-59
2023/09/01 00:43:45;;;;;;;5.90;3.40;;;17.40;91.20;;;;;;5057720;28;20445;-58
2023/09/01 00:46:12;;;;;;;4.83;2.80;;;17.40;91.30;;;;;;5056859;28;20448;-58
2023/09/01 00:48:39;;;;;;;6.97;3.63;;;17.50;91.40;;;;;;5056812;28;20448;-58
2023/09/01 00:51:08;;;;;;;6.33;3.20;;;17.50;91.50;;;;;;5056678;28;20491;-59
2023/09/01 00:53:35;;;;;;;7.37;3.47;;;17.50;91.80;;;;;;5056359;28;20999;-58
2023/09/01 00:56:03;;;;;;;4.13;3.00;;;17.60;91.90;;;;;;5056739;28;20445;-59
2023/09/01 00:58:29;;;;;;;7.40;3.37;;;17.60;91.90;;;;;;5056278;28;20939;-58
2023/09/01 01:00:58;;;;;;;8.40;3.20;;;17.60;92.00;;;;;;5056462;28;20445;-59
2023/09/01 01:03:24;;;;;;;8.10;3.57;;;17.60;92.00;;;;;;5056517;28;20448;-58
2023/09/01 01:06:10;;;;;;;4.73;3.27;;;17.60;92.00;;;;;;5056240;28;20966;-58
2023/09/01 01:08:47;;;;;;;9.30;3.33;;;17.70;92.20;;;;;;5056477;28;20453;-58
2023/09/01 01:11:20;;;;;;;4.83;3.37;;;17.70;92.30;;;;;;5056365;28;20429;-59
2023/09/01 01:13:52;;;;;;;5.10;3.20;;;17.70;92.30;;;;;;5056312;28;20465;-58
2023/09/01 01:16:22;;;;;;;6.13;3.40;;;17.70;92.30;;;;;;5056350;28;20436;-59
2023/09/01 01:18:50;;;;;;;6.33;4.07;;;17.70;92.30;;;;;;5056719;28;20916;-59
2023/09/01 01:21:23;;;;;;;4.70;3.77;;;17.80;92.20;;;;;;5055954;28;20473;-58
2023/09/01 01:23:52;;;;;;;8.07;3.77;;;17.80;92.20;;;;;;5056750;28;20439;-58
2023/09/01 01:26:19;;;;;;;5.63;3.73;;;17.70;92.30;;;;;;5056214;28;20453;-58
2023/09/01 01:28:46;;;;;;;6.73;3.20;;;17.80;92.20;;;;;;5055758;28;20477;-59
2023/09/01 01:31:13;;;;;;;9.23;4.67;;;17.80;92.20;;;;;;5056003;28;20442;-59
2023/09/01 01:33:46;;;;;;;4.90;2.97;;;17.80;92.20;;;;;;5056155;28;20477;-58
2023/09/01 01:36:31;;;;;;;5.20;3.70;;;17.80;92.30;;;;;;5057843;28;20429;-59
2023/09/01 01:39:04;;;;;;;6.30;3.67;;;17.80;92.30;;;;;;5057042;28;20452;-59
2023/09/01 01:41:37;;;;;;;5.10;2.93;;;17.80;92.30;;;;;;5056884;28;20549;-59
2023/09/01 01:44:06;;;;;;;5.87;3.40;;;17.80;92.50;;;;;;5057842;28;20893;-59
2023/09/01 01:46:34;;;;;;;6.13;3.60;;;17.80;92.80;;;;;;5057015;28;20445;-59
2023/09/01 01:49:00;;;;;;;6.13;3.53;;;17.90;92.80;;;;;;5056727;28;20449;-58
2023/09/01 01:51:27;;;;;;;4.97;3.37;;;17.80;92.70;;;;;;5056005;28;20469;-58
2023/09/01 01:53:54;;;;;;;5.83;3.57;;;17.90;92.90;;;;;;5055624;28;20477;-59
2023/09/01 01:56:22;;;;;;;6.80;3.57;;;17.90;92.90;;;;;;5055325;28;20936;-59
2023/09/01 01:58:49;;;;;;;5.27;2.83;;;17.90;93.30;;;;;;5055633;28;20446;-58
2023/09/01 02:01:16;;;;;;;6.87;3.40;;;17.90;92.90;;;;;;5055405;28;20453;-59
2023/09/01 02:03:42;;;;;;;7.10;4.27;;;17.90;93.00;;;;;;5055377;28;20442;-59
2023/09/01 02:06:09;;;;;;;6.67;3.70;;;17.90;93.00;;;;;;5055417;28;20448;-58
2023/09/01 02:08:36;;;;;;;7.60;4.03;;;17.90;93.40;;;;;;5055067;28;20850;-58
2023/09/01 02:11:03;;;;;;;9.50;3.67;;;17.90;93.10;;;;;;5054971;28;20939;-59
2023/09/01 02:13:31;;;;;;;4.67;4.03;;;17.90;93.00;;;;;;5055064;28;20575;-58
2023/09/01 02:15:57;;;;;;;7.50;3.60;;;17.90;93.20;;;;;;5055139;28;20446;-58
2023/09/01 02:18:25;;;;;;;7.60;4.50;;;17.90;93.30;;;;;;5055127;28;20446;-58
2023/09/01 02:20:51;;;;;;;7.30;4.80;;;17.80;93.30;;;;;;5054630;28;20484;-59
2023/09/01 02:23:19;;;;;;;5.10;3.67;;;17.80;93.40;;;;;;5054942;28;20461;-58
2023/09/01 02:25:46;;;;;;;4.93;3.93;;;17.80;93.60;;;;;;5054970;28;20464;-58
2023/09/01 02:28:13;;;;;;;6.53;4.20;;;17.80;93.80;;;;;;5054988;28;20446;-59
2023/09/01 02:30:41;;;;;;;7.87;4.63;;;17.80;94.00;;;;;;5054584;28;21010;-58
2023/09/01 02:33:08;;;;;;;5.90;3.93;;;17.80;94.10;;;;;;5054667;28;20485;-58
2023/09/01 02:35:44;;;;;;;9.00;4.03;;;17.80;94.10;;;;;;5054830;28;20450;-58
2023/09/01 02:38:10;;;;;;;6.20;4.30;;;17.90;94.20;;;;;;5055249;28;20426;-59
2023/09/01 02:40:37;;;;;;;10.27;4.60;;;17.80;94.30;;;;;;5054382;28;20859;-58
2023/09/01 02:43:04;;;;;;;6.10;3.73;;;17.80;94.50;;;;;;5054545;28;20454;-59
2023/09/01 02:45:31;;;;;;;4.33;3.20;;;17.80;94.60;;;;;;5054612;28;20442;-58
2023/09/01 02:47:59;;;;;;;9.23;3.60;;;17.80;94.70;;;;;;5065028;28;20465;-58
2023/09/01 02:50:26;;;;;;;5.70;3.50;;;17.80;94.80;;;;;;5074483;28;20444;-59
2023/09/01 02:52:52;;;;;;;7.43;3.90;;;17.80;95.00;;;;;;5074207;28;20507;-58
2023/09/01 02:55:20;;;;;;;3.70;2.93;;;17.80;94.90;;;;;;5074483;28;20444;-59
2023/09/01 02:57:49;;;;;;;3.93;2.40;;;17.80;95.00;;;;;;5074358;28;20452;-59
2023/09/01 03:00:18;;;;;;;6.47;3.20;;;17.80;95.20;;;;;;5073804;28;20452;-59
2023/09/01 03:02:45;;;;;;;5.60;3.10;;;17.80;95.30;;;;;;5074085;28;20465;-59
2023/09/01 03:05:14;;;;;;;4.90;3.13;;;17.80;95.40;;;;;;5074841;28;20447;-59
2023/09/01 03:07:41;;;;;;;3.60;3.30;;;17.80;95.40;;;;;;5074163;28;20452;-59
2023/09/01 03:10:09;;;;;;;4.73;3.00;;;17.80;95.50;;;;;;5073817;28;20934;-59
2023/09/01 03:12:37;;;;;;;5.43;3.40;;;17.90;95.60;;;;;;5073995;28;20824;-58
2023/09/01 03:15:05;;;;;;;7.70;3.70;;;17.80;95.70;;;;;;5073995;28;20436;-59
2023/09/01 03:17:32;;;;;;;5.50;3.63;;;17.90;95.70;;;;;;5073687;28;20934;-59
2023/09/01 03:19:59;;;;;;;3.13;2.83;;;17.90;95.80;;;;;;5073876;28;20444;-59
2023/09/01 03:22:27;;;;;;;5.80;2.87;;;17.90;95.80;;;;;;5073004;28;20495;-58
2023/09/01 03:24:54;;;;;;;5.20;3.23;;;17.90;95.80;;;;;;5073092;28;20451;-59
2023/09/01 03:27:21;;;;;;;3.50;2.70;;;17.90;95.90;;;;;;5073307;28;20503;-59
2023/09/01 03:29:51;;;;;;;3.20;2.20;;;17.90;95.80;;;;;;5072721;28;20950;-59
2023/09/01 03:32:18;;;;;;;4.13;2.40;;;17.90;95.80;;;;;;5072533;28;20884;-59
2023/09/01 03:34:44;;;;;;;4.87;3.10;;;17.80;95.90;;;;;;5072853;28;20492;-58
2023/09/01 03:37:12;;;;;;;7.27;2.93;;;17.90;96.10;;;;;;5072891;28;20449;-58
2023/09/01 03:39:40;;;;;;;4.70;2.73;;;17.90;96.20;;;;;;5072823;28;20448;-59
2023/09/01 03:42:06;;;;;;;5.83;3.37;;;17.90;96.20;;;;;;5072690;28;20460;-58
2023/09/01 03:44:33;;;;;;;5.80;4.07;;;17.90;96.20;;;;;;5072798;28;20448;-57
2023/09/01 03:47:00;;;;;;;4.53;3.67;;;17.90;96.30;;;;;;5072763;28;20444;-57
2023/09/01 03:49:27;;;;;;;6.27;4.63;;;17.90;96.30;;;;;;5072692;28;20450;-58
2023/09/01 03:51:54;;;;;;;5.83;5.13;;;17.90;96.40;;;;;;5072594;28;20469;-58
2023/09/01 03:54:21;;;;;;;7.47;4.80;;;17.90;96.30;;;;;;5072627;28;20477;-58
2023/09/01 03:56:50;;;;;;;4.67;4.17;;;17.90;96.60;;;;;;5072278;28;20817;-58
2023/09/01 03:59:16;;;;;;;5.73;3.63;;;17.90;96.60;;;;;;5072499;28;20449;-58
2023/09/01 04:01:44;;;;;;;4.37;3.73;;;17.90;96.80;;;;;;5072201;28;20986;-58
2023/09/01 04:04:09;;;;;;;8.57;4.00;;;17.90;96.80;;;;;;5072193;28;20969;-58
2023/09/01 04:06:36;;;;;;;7.73;4.20;;;17.90;97.00;;;;;;5072296;28;20477;-58
2023/09/01 04:09:04;;;;;;;8.13;4.80;;;17.90;97.10;;;;;;5072143;28;20695;-58
2023/09/01 04:11:31;;;;;;;5.23;3.50;;;17.90;97.30;;;;;;5070722;28;20464;-58
2023/09/01 04:13:59;;;;;;;5.00;3.67;;;17.90;97.30;;;;;;5072316;28;20486;-58
2023/09/01 04:16:26;;;;;;;4.47;3.57;;;17.90;97.40;;;;;;5072088;28;20943;-58
2023/09/01 04:18:52;;;;;;;3.27;2.73;;;17.90;97.40;;;;;;5072060;28;20957;-58
2023/09/01 04:21:19;;;;;;;4.77;3.80;;;17.90;97.40;;;;;;5035952;28;1028600;-58
2023/09/01 04:23:46;;;;;;;3.30;2.73;;;17.90;97.50;;;;;;5073379;28;20183;-58
2023/09/01 04:26:13;;;;;;;3.60;3.00;;;17.90;97.50;;;;;;5073327;28;20436;-58
2023/09/01 04:28:40;;;;;;;3.77;3.37;;;17.90;97.60;;;;;;5073242;28;20467;-59
2023/09/01 04:31:16;;;;;;;3.30;3.00;;;17.90;97.70;;;;;;5073293;28;20436;-59
2023/09/01 04:33:43;;;;;;;2.90;2.70;;;17.90;97.80;;;;;;5073080;28;20461;-59
2023/09/01 04:36:10;;;;;;;3.30;3.00;;;17.90;97.90;;;;;;5073172;28;20479;-59
2023/09/01 04:38:37;;;;;;;3.37;2.33;;;17.90;97.90;;;;;;5072707;28;20817;-58
2023/09/01 04:41:03;;;;;;;4.40;2.90;;;18.00;97.90;;;;;;5072950;28;20448;-58
2023/09/01 04:43:30;;;;;;;5.37;3.30;;;18.00;97.90;;;;;;5072958;28;20512;-59
2023/09/01 04:45:58;;;;;;;5.23;3.77;;;18.00;98.00;;;;;;5073014;28;20445;-58
2023/09/01 04:48:27;;;;;;;4.77;3.30;;;18.00;98.10;;;;;;5072913;28;20444;-58
2023/09/01 04:50:54;;;;;;;4.03;3.40;;;18.00;98.10;;;;;;5072545;28;20828;-58
2023/09/01 04:53:21;;;;;;;4.57;3.57;;;18.00;98.20;;;;;;5072723;28;20537;-58
2023/09/01 04:55:48;;;;;;;3.90;3.20;;;18.00;98.20;;;;;;5072942;28;20846;-59
2023/09/01 04:58:15;;;;;;;4.27;3.40;;;18.00;98.20;;;;;;5072924;28;20440;-59
2023/09/01 05:00:42;;;;;;;4.20;3.77;;;18.00;98.20;;;;;;5072940;28;20449;-58
2023/09/01 05:03:09;;;;;;;4.60;3.77;;;18.00;98.20;;;;;;5072736;28;20472;-58
2023/09/01 05:05:37;;;;;;;6.77;4.30;;;18.00;98.30;;;;;;5073377;28;20444;-58
2023/09/01 05:08:04;;;;;;;5.20;4.70;;;18.00;98.10;;;;;;5072857;28;20440;-58
2023/09/01 05:10:31;;;;;;;4.63;4.23;;;18.00;98.10;;;;;;5072862;28;20448;-58
2023/09/01 05:12:57;;;;;;;6.17;4.43;;;18.00;98.30;;;;;;5072611;28;20465;-58
2023/09/01 05:15:24;;;;;;;5.70;5.20;;;18.00;98.50;;;;;;5072692;28;20477;-58
2023/09/01 05:17:51;;;;;;;7.13;5.20;;;18.00;98.50;;;;;;5073477;28;20445;-58
2023/09/01 05:20:17;;;;;;;6.97;6.10;;;18.00;98.60;;;;;;5072653;28;20444;-59
2023/09/01 05:22:45;;;;;;;6.90;5.83;;;18.00;98.50;;;;;;5073857;28;20484;-58
2023/09/01 05:25:12;;;;;;;9.67;6.67;;;18.00;98.60;;;;;;5076202;28;20441;-58
2023/09/01 05:27:39;;;;;;;6.20;5.40;;;18.00;98.60;;;;;;5076941;28;20448;-58
2023/09/01 05:30:07;;;;;;;7.60;6.90;;;18.00;98.70;;;;;;5076108;28;20448;-58
2023/09/01 05:32:34;;;;;;;7.13;6.43;;;18.00;98.70;;;;;;5075882;28;20468;-58
2023/09/01 05:35:01;;;;;;;9.10;6.90;;;18.10;98.80;;;;;;5075885;28;20483;-58
2023/09/01 05:37:28;;;;;;;8.40;6.90;;;18.10;98.80;;;;;;5075625;28;20939;-58
2023/09/01 05:39:56;;;;;;;7.10;6.07;;;18.10;98.80;;;;;;5075552;28;20961;-58
2023/09/01 05:42:23;;;;;;;6.87;5.77;;;18.10;98.50;;;;;;5075791;28;20465;-58
2023/09/01 05:44:49;;;;;;;6.80;5.50;;;18.20;98.50;;;;;;5075877;28;20448;-58
2023/09/01 05:47:16;;;;;;;7.30;6.63;;;18.20;98.50;;;;;;5069792;28;20828;-58
2023/09/01 05:49:43;;;;;;;6.07;5.40;;;18.20;98.40;;;;;;5055644;28;20453;-58
2023/09/01 05:52:09;;;;;;;6.73;5.67;;;18.20;98.50;;;;;;5055646;28;20473;-58
2023/09/01 05:54:36;;;;;;;7.40;6.70;;;18.30;98.50;;;;;;5055607;28;20490;-58
2023/09/01 05:57:04;;;;;;;5.70;5.30;;;18.30;98.40;;;;;;5055563;28;20449;-59
2023/09/01 05:59:31;;;;;;;7.17;5.67;;;18.30;98.80;;;;;;5055590;28;20442;-58
2023/09/01 06:01:58;;;;;;;7.90;5.90;;;18.40;98.40;;;;;;5055029;28;20839;-58
2023/09/01 06:04:24;;;;;;;5.17;4.63;;;18.40;98.40;;;;;;5055433;28;20803;-58
2023/09/01 06:06:51;;;;;;;7.00;5.50;;;18.40;98.30;;;;;;5055143;28;20915;-58
2023/09/01 06:09:19;;;;;;;5.93;5.40;;;18.50;98.20;;;;;;5055045;28;20819;-58
2023/09/01 06:11:46;;;;;;;7.50;5.77;;;18.60;98.10;;;;;;5055123;28;20477;-58
2023/09/01 06:14:14;;;;;;;5.73;5.17;;;18.50;98.00;;;;;;5054906;28;21009;-58
2023/09/01 06:16:41;;;;;;;6.77;6.10;;;18.60;97.90;;;;;;5055244;28;20445;-59
2023/09/01 06:19:08;;;;;;;6.93;6.23;;;18.60;97.90;;;;;;5055183;28;20541;-58
2023/09/01 06:21:35;;;;;;;8.47;5.70;;;18.70;97.80;;;;;;5054598;28;20995;-58
2023/09/01 06:24:03;;;;;;;9.17;5.90;;;18.70;97.60;;;;;;5055087;28;20465;-58
2023/09/01 06:26:30;;;;;;;7.10;6.50;;;18.70;97.50;;;;;;5055062;28;20551;-58
2023/09/01 06:28:57;;;;;;;7.17;6.40;;;18.70;97.70;;;;;;5054918;28;20450;-59
2023/09/01 06:31:25;;;;;;;7.03;6.03;;;18.70;97.60;;;;;;5054851;28;20469;-58
2023/09/01 06:33:51;;;;;;;9.30;6.50;;;18.70;97.50;;;;;;5053745;28;20450;-59
2023/09/01 06:36:19;;;;;;;5.40;5.00;;;18.60;97.40;;;;;;5054878;28;20438;-59
2023/09/01 06:38:47;;;;;;;7.33;6.63;;;18.60;97.50;;;;;;5054785;28;20445;-59
2023/09/01 06:41:14;;;;;;;7.20;6.50;;;18.60;97.70;;;;;;5054619;28;20813;-59
2023/09/01 06:43:41;;;;;;;7.80;6.30;;;18.70;97.90;;;;;;5054354;28;20445;-59
2023/09/01 06:46:07;;;;;;;6.10;5.50;;;18.70;98.00;;;;;;5054653;28;20476;-59
2023/09/01 06:48:36;;;;;;;6.93;6.23;;;18.70;97.90;;;;;;5054246;28;20935;-59
2023/09/01 06:51:03;;;;;;;7.10;5.83;;;18.70;97.80;;;;;;5054437;28;20515;-59
2023/09/01 06:53:30;;;;;;;6.50;5.87;;;18.70;97.90;;;;;;5054357;28;20446;-59
2023/09/01 06:55:56;;;;;;;8.43;6.20;;;18.80;97.80;;;;;;5054052;28;21002;-58
2023/09/01 06:58:23;;;;;;;7.00;6.40;;;18.80;97.80;;;;;;5054524;28;20437;-59
2023/09/01 07:00:51;;;;;;;7.10;6.40;;;18.80;97.80;;;;;;5054249;28;20445;-59
2023/09/01 07:03:18;;;;;;;6.20;5.60;;;18.90;97.90;;;;;;5053934;28;20500;-59
2023/09/01 07:05:55;;;;;;;4.93;4.43;;;19.00;98.00;;;;;;5054247;28;20445;-59
2023/09/01 07:08:21;;;;;;;7.27;6.07;;;19.10;98.30;;;;;;5054231;28;20426;-59
2023/09/01 07:10:48;;;;;;;7.40;5.23;;;19.20;97.60;;;;;;5054155;28;20480;-59
2023/09/01 07:13:15;;;;;;;8.53;5.50;;;19.20;96.90;;;;;;5054034;28;20462;-59
2023/09/01 07:15:47;;;;;;;5.73;5.20;;;19.30;96.80;;;;;;5054078;28;20534;-59
2023/09/01 07:18:13;;;;;;;5.40;5.00;;;19.30;96.60;;;;;;5054068;28;20476;-59
2023/09/01 07:20:40;;;;;;;5.00;4.60;;;19.30;96.50;;;;;;5053928;28;20472;-59
2023/09/01 07:23:08;;;;;;;5.37;4.60;;;19.30;96.40;;;;;;5053582;28;20477;-59
2023/09/01 07:25:35;;;;;;;4.80;4.40;;;19.40;96.30;;;;;;5053949;28;20445;-59
2023/09/01 07:28:01;;;;;;;5.20;4.57;;;19.40;96.20;;;;;;5053826;28;20441;-59
2023/09/01 07:30:31;;;;;;;4.80;4.20;;;19.40;96.50;;;;;;5053820;28;20441;-59
2023/09/01 07:32:58;;;;;;;5.60;3.87;;;19.40;96.40;;;;;;5053622;28;20468;-59
2023/09/01 07:35:24;;;;;;;7.33;3.97;;;19.50;96.60;;;;;;5053644;28;20493;-59
2023/09/01 07:37:51;;;;;;;5.00;3.50;;;19.50;96.80;;;;;;5053699;28;20449;-59
2023/09/01 07:40:19;;;;;;;5.00;3.30;;;19.50;96.40;;;;;;5053634;28;20441;-59
2023/09/01 07:42:46;;;;;;;5.30;2.90;;;19.50;96.30;;;;;;5053158;28;20935;-59
2023/09/01 07:45:13;;;;;;;6.27;3.00;;;19.40;96.50;;;;;;5053030;28;20445;-59
2023/09/01 07:47:39;;;;;;;2.80;2.47;;;19.20;97.00;;;;;;5053284;28;20931;-59
2023/09/01 07:50:07;;;;;;;3.50;2.40;;;19.00;97.10;;;;;;5053522;28;20816;-59
2023/09/01 07:52:34;;;;;;;6.30;2.43;;;18.90;97.70;;;;;;5053320;28;20468;-59
2023/09/01 07:55:00;;;;;;;4.07;2.63;;;18.80;98.20;;;;;;5053333;28;20535;-58
2023/09/01 07:57:28;;;;;;;2.93;2.43;;;18.80;98.60;;;;;;5053393;28;20468;-57
2023/09/01 07:59:55;;;;;;;3.60;2.90;;;18.80;98.70;;;;;;5053291;28;20453;-56
2023/09/01 08:02:22;;;;;;;3.43;3.00;;;18.70;99.20;;;;;;5053271;28;20469;-56
2023/09/01 08:04:48;;;;;;;6.77;3.20;;;18.70;99.50;;;;;;5053391;28;20854;-55
2023/09/01 08:07:15;;;;;;;5.20;3.13;;;18.60;99.70;;;;;;5053347;28;20450;-56
2023/09/01 08:09:42;;;;;;;5.40;4.60;;;18.50;99.90;;;;;;5053309;28;20442;-57
2023/09/01 08:12:09;;;;;;;5.37;3.13;;;18.50;99.90;;;;;;5053283;28;20472;-57
2023/09/01 08:14:37;;;;;;;5.20;3.20;;;18.40;99.90;;;;;;5053184;28;20504;-57
2023/09/01 08:17:04;;;;;;;6.93;3.83;;;18.40;99.90;;;;;;5053196;28;20450;-57
2023/09/01 08:19:31;;;;;;;6.00;3.27;;;18.30;99.90;;;;;;5053179;28;20485;-57
2023/09/01 08:21:57;;;;;;;4.50;3.53;;;18.30;99.90;;;;;;5052837;28;20535;-57
2023/09/01 08:24:24;;;;;;;4.47;3.27;;;18.40;99.90;;;;;;5053114;28;20448;-56
2023/09/01 08:26:51;;;;;;;4.50;3.30;;;18.40;99.90;;;;;;5053102;28;20445;-57
2023/09/01 08:29:18;;;;;;;5.03;4.00;;;18.40;99.90;;;;;;5053077;28;20484;-57
2023/09/01 08:31:46;;;;;;;7.13;3.50;;;18.50;99.90;;;;;;5052882;28;20461;-58
2023/09/01 08:34:13;;;;;;;4.63;3.37;;;18.50;99.90;;;;;;5052735;28;20947;-57
2023/09/01 08:36:39;;;;;;;2.67;2.43;;;18.70;99.90;;;;;;5052715;28;20815;-57
2023/09/01 08:39:07;;;;;;;3.83;2.87;;;18.70;99.90;;;;;;5052707;28;20993;-56
2023/09/01 08:41:35;;;;;;;4.43;3.40;;;18.80;99.90;;;;;;5052815;28;20496;-56
2023/09/01 08:44:06;;;;;;;3.90;3.40;;;18.90;99.90;;;;;;5052934;28;20448;-57
2023/09/01 08:46:34;;;;;;;6.80;4.07;;;19.00;99.90;;;;;;5052869;28;20935;-58
2023/09/01 08:49:04;;;;;;;5.33;3.83;;;19.10;99.90;;;;;;5053175;28;20450;-57
2023/09/01 08:51:32;;;;;;;3.97;3.60;;;19.20;99.90;;;;;;5052739;28;20544;-58
2023/09/01 08:53:59;;;;;;;4.03;3.60;;;19.20;99.90;;;;;;5052876;28;20824;-58
2023/09/01 08:56:26;;;;;;;5.37;4.50;;;19.30;99.90;;;;;;5052517;28;20477;-57
2023/09/01 08:58:53;;;;;;;8.83;4.83;;;19.30;99.90;;;;;;5056140;28;20445;-57
2023/09/01 09:01:20;;;;;;;4.83;4.20;;;19.30;99.90;;;;;;5073219;28;21004;-57
2023/09/01 09:03:47;;;;;;;6.70;5.00;;;19.30;99.90;;;;;;5076369;28;20440;-56
2023/09/01 09:06:16;;;;;;;6.07;4.83;;;19.30;99.90;;;;;;5076559;28;20448;-56
2023/09/01 09:08:43;;;;;;;7.80;6.40;;;19.20;99.90;;;;;;5076762;28;20486;-57
2023/09/01 09:11:13;;;;;;;9.93;6.70;;;19.30;99.90;;;;;;5076298;28;20447;-58
2023/09/01 09:13:40;;;;;;;7.20;5.97;;;19.20;99.90;;;;;;5076600;28;20461;-58
2023/09/01 09:16:08;;;;;;;10.80;6.47;;;19.20;99.90;;;;;;5076643;28;20480;-59
2023/09/01 09:18:36;;;;;;;7.73;5.10;;;19.20;99.90;;;;;;5076040;28;20955;-58
2023/09/01 09:21:03;;;;;;;6.80;4.77;;;19.10;99.90;;;;;;5076086;28;20448;-58
2023/09/01 09:23:46;;;;;;;5.20;4.80;;;19.10;99.90;;;;;;5076004;28;20903;-58
2023/09/01 09:26:13;;;;;;;5.63;4.80;;;19.00;99.90;;;;;;5074330;28;20445;-59
2023/09/01 09:28:41;;;;;;;5.30;4.47;;;19.00;99.90;;;;;;5079312;28;20820;-57
2023/09/01 09:31:08;;;;;;;6.13;4.80;;;19.00;99.90;;;;;;5079187;28;20855;-58
2023/09/01 09:33:35;;;;;;;6.40;5.17;;;19.00;99.90;;;;;;5076387;28;20440;-57
2023/09/01 09:36:03;;;;;;;7.27;5.97;;;19.00;99.90;;;;;;5075600;28;21001;-58
2023/09/01 09:38:42;;;;;;;8.57;5.70;;;19.00;99.90;;;;;;5075897;28;20471;-57
2023/09/01 09:41:10;;;;;;;7.90;4.60;;;19.00;99.90;;;;;;5075742;28;20448;-57
2023/09/01 09:43:44;;;;;;;5.43;4.47;;;19.10;99.90;;;;;;5075533;28;20965;-58
2023/09/01 09:46:13;;;;;;;4.03;3.73;;;19.10;99.90;;;;;;5075917;28;20914;-58
2023/09/01 09:48:41;;;;;;;4.03;3.43;;;19.10;99.90;;;;;;5075515;28;20449;-59
2023/09/01 09:51:09;;;;;;;4.53;3.80;;;19.10;99.90;;;;;;5075595;28;20445;-58
2023/09/01 09:53:37;;;;;;;5.47;3.67;;;19.10;99.90;;;;;;5075339;28;20441;-60
2023/09/01 09:56:18;;;;;;;4.33;3.80;;;19.10;99.90;;;;;;5075600;28;20508;-59
2023/09/01 09:58:47;;;;;;;3.83;3.47;;;19.10;99.90;;;;;;5075785;28;20471;-59
2023/09/01 10:01:19;;;;;;;3.53;3.13;;;19.10;99.90;;;;;;5075750;28;20467;-59
2023/09/01 10:03:47;;;;;;;3.20;2.90;;;19.10;99.90;;;;;;5075409;28;20449;-59
2023/09/01 10:06:16;;;;;;;4.20;3.50;;;19.10;99.90;;;;;;5075443;28;20465;-59
2023/09/01 10:08:43;;;;;;;4.43;3.00;;;19.20;99.90;;;;;;5075347;28;20851;-59
2023/09/01 10:11:13;;;;;;;5.00;2.50;;;19.30;99.90;;;;;;5075271;28;20467;-59
2023/09/01 10:13:43;;;;;;;3.00;2.20;;;19.40;99.90;;;;;;5075431;28;20477;-59
2023/09/01 10:16:10;;;;;;;5.23;2.07;;;19.50;99.90;;;;;;5074912;28;20900;-59
2023/09/01 10:18:37;;;;;;;4.37;2.30;;;19.50;99.90;;;;;;5074968;28;20452;-59
2023/09/01 10:21:05;;;;;;;3.07;1.93;;;19.60;99.90;;;;;;5074932;28;20448;-59
2023/09/01 10:23:34;;;;;;;3.13;2.47;;;19.60;99.90;;;;;;5075206;28;20433;-60
2023/09/01 10:26:16;;;;;;;2.07;1.93;;;19.70;99.90;;;;;;5075191;28;20460;-60
2023/09/01 10:29:00;;;;;;;2.80;2.50;;;19.90;99.90;;;;;;5075115;28;20433;-61
2023/09/01 10:31:27;;;;;;;3.90;2.70;;;20.00;99.90;;;;;;5075111;28;20518;-60
2023/09/01 10:34:05;;;;;;;3.37;3.07;;;20.10;99.90;;;;;;5074981;28;20444;-61
2023/09/01 10:36:32;;;;;;;3.47;3.17;;;20.40;99.90;;;;;;5074497;28;20491;-60
2023/09/01 10:39:21;;;;;;;4.17;3.77;;;20.60;99.90;;;;;;5074757;28;20440;-60
2023/09/01 10:41:58;;;;;;;3.30;3.00;;;20.80;99.90;;;;;;5074750;28;20503;-61
2023/09/01 10:44:27;;;;;;;3.50;3.20;;;21.10;99.90;;;;;;5074503;28;20953;-61
2023/09/01 10:46:54;;;;;;;3.10;2.80;;;21.20;99.90;;;;;;5074621;28;20441;-60
2023/09/01 10:49:21;;;;;;;3.30;3.00;;;21.20;99.90;;;;;;5074651;28;20447;-60
2023/09/01 10:51:47;;;;;;;3.10;2.70;;;21.30;99.60;;;;;;5074500;28;20461;-60
2023/09/01 10:54:39;;;;;;;3.87;2.70;;;21.30;99.30;;;;;;5074554;28;20445;-59
2023/09/01 10:57:12;;;;;;;3.30;3.00;;;21.30;99.10;;;;;;5074389;28;20484;-59
2023/09/01 10:59:38;;;;;;;2.93;2.43;;;21.30;99.00;;;;;;5074526;28;20429;-59
2023/09/01 11:02:18;;;;;;;2.73;2.20;;;21.30;99.00;;;;;;5074193;28;20465;-59
2023/09/01 11:04:45;;;;;;;2.60;2.40;;;21.20;98.90;;;;;;5074278;28;20472;-59
2023/09/01 11:07:13;;;;;;;3.13;2.80;;;21.20;98.80;;;;;;5074257;28;20440;-59
2023/09/01 11:09:50;;;;;;;3.70;3.23;;;21.20;98.80;;;;;;5073933;28;20894;-59
2023/09/01 11:12:19;;;;;;;3.00;2.60;;;21.20;98.90;;;;;;5073886;28;20823;-59
2023/09/01 11:14:56;;;;;;;3.00;2.80;;;21.10;99.00;;;;;;5074185;28;20445;-59
2023/09/01 11:17:38;;;;;;;1.80;1.70;;;21.10;99.20;;;;;;5074017;28;20491;-59
2023/09/01 11:20:08;;;;;;;2.67;2.43;;;21.10;99.40;;;;;;5073435;28;20445;-59
2023/09/01 11:22:37;;;;;;;2.50;2.30;;;21.00;99.50;;;;;;5073654;28;20487;-59
2023/09/01 11:25:04;;;;;;;2.80;2.10;;;21.00;99.70;;;;;;5073561;28;20449;-59
2023/09/01 11:27:32;;;;;;;2.27;2.13;;;20.90;99.80;;;;;;5073577;28;20938;-60
2023/09/01 11:30:02;;;;;;;3.67;2.20;;;20.90;99.90;;;;;;5073770;28;20443;-60
2023/09/01 11:32:29;;;;;;;3.33;2.90;;;20.90;99.90;;;;;;5073764;28;20877;-60
2023/09/01 11:34:56;;;;;;;2.17;1.93;;;20.90;99.90;;;;;;5073743;28;20460;-61
2023/09/01 11:37:36;;;;;;;2.27;2.07;;;20.90;99.90;;;;;;5073687;28;20479;-61
2023/09/01 11:40:07;;;;;;;2.70;2.30;;;20.90;99.90;;;;;;5073706;28;20440;-60
2023/09/01 11:42:37;;;;;;;3.00;2.10;;;20.90;99.90;;;;;;5073557;28;20500;-60
2023/09/01 11:45:05;;;;;;;3.50;1.80;;;21.00;99.90;;;;;;5073603;28;20449;-61
2023/09/01 11:47:32;;;;;;;3.10;1.70;;;20.90;99.90;;;;;;5072373;28;20472;-62
2023/09/01 11:49:59;;;;;;;2.10;1.20;;;21.00;99.90;;;;;;5073490;28;20476;-61
2023/09/01 11:52:26;;;;;;;2.63;1.40;;;21.10;99.90;;;;;;5073552;28;20465;-61
2023/09/01 11:54:53;;;;;;;2.80;2.07;;;21.20;99.90;;;;;;5073456;28;20444;-61
2023/09/01 11:57:20;;;;;;;2.50;1.40;;;21.30;99.90;;;;;;5073389;28;20476;-61
2023/09/01 11:59:49;;;;;;;3.03;1.63;;;21.30;99.90;;;;;;5073405;28;20440;-61
2023/09/01 12:02:17;;;;;;;3.70;1.73;;;21.40;99.90;;;;;;5072829;28;20821;-62
2023/09/01 12:04:48;;;;;;;2.63;1.70;;;21.50;99.90;;;;;;5073341;28;20444;-62
2023/09/01 12:07:25;;;;;;;1.90;1.37;;;21.60;99.90;;;;;;5073089;28;20948;-62
2023/09/01 12:09:52;;;;;;;1.67;1.50;;;21.80;99.90;;;;;;5073246;28;20527;-62
2023/09/01 12:12:19;;;;;;;1.43;1.23;;;21.90;99.90;;;;;;5072979;28;20498;-62
2023/09/01 12:14:45;;;;;;;1.67;1.57;;;22.00;99.90;;;;;;5073030;28;20447;-62
2023/09/01 12:17:18;;;;;;;2.80;1.70;;;22.10;99.90;;;;;;5073217;28;20484;-62
2023/09/01 12:19:47;;;;;;;3.53;2.23;;;22.20;99.70;;;;;;5073413;28;20436;-62
2023/09/01 12:22:14;;;;;;;3.53;2.17;;;22.30;99.50;;;;;;5072823;28;20986;-62
2023/09/01 12:24:50;;;;;;;2.40;2.13;;;22.30;99.30;;;;;;5073178;28;20453;-62
2023/09/01 12:27:17;;;;;;;3.33;2.30;;;22.30;99.20;;;;;;5073144;28;20464;-62
2023/09/01 12:29:44;;;;;;;1.90;1.77;;;22.30;99.20;;;;;;5073205;28;20448;-62
2023/09/01 12:32:10;;;;;;;2.60;1.80;;;22.30;99.00;;;;;;5073939;28;20457;-62
2023/09/01 12:34:38;;;;;;;3.20;1.87;;;22.20;98.90;;;;;;5077205;28;20444;-61
2023/09/01 12:37:06;;;;;;;1.37;1.23;;;22.20;99.20;;;;;;5076683;28;20879;-62
2023/09/01 12:39:33;;;;;;;1.57;1.47;;;22.20;99.20;;;;;;5076719;28;20957;-62
2023/09/01 12:41:59;;;;;;;1.93;1.40;;;22.10;98.90;;;;;;5076891;28;20464;-62
2023/09/01 12:44:27;;;;;;;2.17;1.40;;;22.10;98.70;;;;;;5077048;28;20453;-63
2023/09/01 12:46:54;;;;;;;2.60;2.17;;;22.10;98.60;;;;;;5076606;28;20502;-60
2023/09/01 12:49:21;;;;;;;1.53;1.10;;;22.10;98.60;;;;;;5076871;28;20441;-60
2023/09/01 12:51:49;;;;;;;2.43;1.50;;;22.10;98.60;;;;;;5076841;28;20468;-60